Terminal Aerodrome Forecast
Issued by NWS Tuscon, AZ

Home | Current Version | Previous Version | Text Only | Print | Product List | Glossary On
Versions: 1 2 3 4 5 6 7 8 9 10 11 12 13
000
FTUS45 KTWC 272340
TAFTUS
TAF
KTUS 272340Z 2800/2824 24015G25KT P6SM SCT080 BKN120 OVC180
     FM280200 21013KT P6SM SCT070 OVC110
     FM281000 22012KT P6SM VCSH BKN060 BKN100
     FM281400 24014G24KT P6SM -SHRA SCT030 BKN050
     FM281900 25015G25KT P6SM VCSH FEW030 BKN050 OVC100=

USA.gov is the U.S. government's official web portal to all federal, state and local government web resources and services.